Tontogany, Ohio
Current Conditions -  °F | °C
As of 12:17 PM on Friday 19 Dec 2014 (Local Time) from KTOL Reporting Station
Overcast Overcast  
Wind Chill: 30°   Ceiling: 1200
Heat Index: 30°   Visibility: 7mi
Dew Point: 25°   Wind: 3mph
Humidity: 80%   Direction: 50°NE
Pressure: 30.26"   Gusts: NA
Location:  41.42°N, 83.74°W
Report Text: KTOL 191717Z 05003KT 7SM BKN012 OVC023 M01/M04 A3026 RMK AO2
Loading
Personal Weather Stations






























Interactive Weather Map New forecast layout! Learn more

10-Day Weather Forecast

Advertisements
Track Severe Weather on mobile